Airfield :
LOGIN :

Register | Disclaimer

   EN    FR    IT 

 










Legend :    VFR   Marginal VFR   IFR   Intensive IFR   Very Intensive IFR
Visi :
Ceiling :
>= 8 km
>= 3000ft
5 to 8 km
1000 to 3000 ft
1500m to 5 km
500 to 1000 ft
800 to 1500m
200 to 500 ft
< 800m
< 200 ft
Symbols :   Thunderstorms  Fog  Heavy snow  Heavy precipitations  Wind > 20 kt
SIGMETs :     Misc.  Thunderstorms  Icing  Turbulence  Mountain Waves  Volcanic Ashes






- Airport Elevation : 2302 ft


LEAB - Albacete

CURRENT METAR :
  • 141030Z 16011KT 130V210 9999 FEW018 13/04 Q1019 NOSIG

EXPIRED METARs :
  • 141000Z 16011KT 120V190 9999 FEW015 13/02 Q1019 NOSIG
  • 140930Z 14010KT 110V170 9999 FEW015 12/05 Q1019 NOSIG
  • 140900Z 15010KT 9999 FEW015 11/06 Q1019 NOSIG
  • 140830Z 14009KT 9999 FEW014 11/06 Q1019 NOSIG
  • 140800Z 14009KT 9999 FEW010 10/06 Q1019 NOSIG

TAF TAF LEAB
Valid from the 14 at 06:00 until the 15 at 06:00 UTC


140500Z 1406/1506 14007KT 9999 SCT025 TX17/1415Z TN08/1406Z
TEMPO 1406/1409 BKN009
PROB40
TEMPO 1418/1506 4000 SHRA SCT025TCU
BECMG 1502/1504 OVC013



MET'MAP, your aeronautical weather chart ! - Copyright ORBIFLY December 2007 - Disclaimer

ORBIFLY MET'MAP TEAM :

Programming & Development : Alexandra Zaïnal
Concept & original design : Baudouin d'Aumeries
Assistance for programming : Marc-Olivier Méhu
Technical & hardware support : Manuel Goepfert

Contact : metmap@orbifly.com




SOURCES & CREDITS :

   NOAA